createdAt,value
2023-10-01T00:00:49.532Z,83.49
2023-10-01T00:03:57.111Z,83.44
2023-10-01T00:07:00.548Z,82.68
2023-10-01T00:10:07.992Z,82.49
2023-10-01T00:13:10.991Z,82.63
2023-10-01T00:16:15.175Z,82.28
2023-10-01T00:19:18.930Z,82.21
2023-10-01T00:22:21.833Z,82.42
2023-10-01T00:25:25.383Z,82.22
2023-10-01T00:28:28.379Z,82.40
2023-10-01T00:31:31.836Z,82.81
2023-10-01T00:34:34.664Z,82.88
2023-10-01T00:37:37.487Z,83.01
2023-10-01T00:40:44.405Z,83.27
2023-10-01T00:43:50.241Z,83.28
2023-10-01T00:46:53.037Z,83.17
2023-10-01T00:49:58.686Z,82.83
2023-10-01T00:53:01.703Z,83.24
2023-10-01T00:56:05.338Z,83.58
2023-10-01T00:59:12.892Z,83.70
2023-10-01T01:02:19.347Z,83.37
2023-10-01T01:05:25.119Z,83.08
2023-10-01T01:08:48.626Z,83.03
2023-10-01T01:11:51.885Z,82.94
2023-10-01T01:14:56.329Z,83.03
2023-10-01T01:18:01.585Z,83.20
2023-10-01T01:21:11.495Z,83.71
2023-10-01T01:24:15.251Z,83.77
2023-10-01T01:27:19.052Z,83.18
2023-10-01T01:30:29.662Z,83.37
2023-10-01T01:33:33.878Z,83.38
2023-10-01T01:36:38.880Z,83.46
2023-10-01T01:39:52.880Z,83.66
2023-10-01T01:42:58.439Z,83.29
2023-10-01T01:46:05.325Z,82.87
2023-10-01T01:49:11.479Z,82.75
2023-10-01T01:52:14.253Z,82.67
2023-10-01T01:55:24.892Z,82.62
2023-10-01T01:58:28.002Z,82.61
2023-10-01T02:01:32.281Z,82.78
2023-10-01T02:04:58.930Z,82.55
2023-10-01T02:08:10.078Z,82.63
2023-10-01T02:11:13.568Z,82.38
2023-10-01T02:14:31.583Z,82.43
2023-10-01T02:17:37.156Z,82.75
2023-10-01T02:20:53.529Z,82.69
2023-10-01T02:23:56.321Z,83.06
2023-10-01T02:27:01.943Z,82.80
2023-10-01T02:30:18.201Z,82.99
2023-10-01T02:33:23.288Z,83.42
2023-10-01T02:36:26.433Z,82.98
2023-10-01T02:39:31.113Z,83.11
2023-10-01T02:42:33.812Z,83.39
2023-10-01T02:45:43.035Z,83.42
2023-10-01T02:48:53.481Z,83.28
2023-10-01T02:52:00.666Z,83.31
2023-10-01T02:55:20.085Z,83.50
2023-10-01T02:58:29.659Z,83.30
2023-10-01T03:01:33.267Z,83.30
2023-10-01T03:04:37.418Z,83.18
2023-10-01T03:07:40.546Z,83.24
2023-10-01T03:10:47.942Z,83.47
2023-10-01T03:13:53.061Z,83.66
2023-10-01T03:16:56.124Z,83.73
2023-10-01T03:20:13.086Z,83.84
2023-10-01T03:23:22.268Z,83.75
2023-10-01T03:26:28.414Z,84.80
2023-10-01T03:29:37.171Z,84.64
2023-10-01T03:32:42.235Z,85.17
2023-10-01T03:35:49.540Z,84.71
2023-10-01T03:39:00.476Z,84.16
2023-10-01T03:42:14.927Z,84.14
2023-10-01T03:45:23.386Z,84.28
2023-10-01T03:48:27.100Z,84.25
2023-10-01T03:51:50.889Z,83.70
2023-10-01T03:54:54.210Z,83.60
2023-10-01T03:58:05.518Z,83.33
2023-10-01T04:01:28.218Z,84.14
2023-10-01T04:04:34.364Z,83.80
2023-10-01T04:07:44.334Z,83.68
2023-10-01T04:11:00.476Z,84.19
2023-10-01T04:14:12.484Z,84.60
2023-10-01T04:17:15.207Z,84.34
2023-10-01T04:20:21.253Z,84.10
2023-10-01T04:23:31.365Z,83.97
2023-10-01T04:26:37.224Z,83.94
2023-10-01T04:29:46.621Z,84.17
2023-10-01T04:32:50.754Z,84.65
2023-10-01T04:35:56.835Z,84.98
2023-10-01T04:39:02.020Z,85.23
2023-10-01T04:42:05.028Z,84.57
2023-10-01T04:45:24.619Z,84.42
2023-10-01T04:48:27.484Z,84.47
2023-10-01T04:51:46.391Z,84.76
2023-10-01T04:54:51.268Z,84.63
2023-10-01T04:57:55.922Z,85.59
2023-10-01T05:01:01.054Z,84.97
2023-10-01T05:04:04.233Z,84.79
2023-10-01T05:07:07.205Z,84.41
2023-10-01T05:10:11.327Z,83.78
2023-10-01T05:13:19.006Z,83.61
2023-10-01T05:16:29.618Z,83.04
2023-10-01T05:19:34.026Z,83.21
2023-10-01T05:22:48.286Z,82.96
2023-10-01T05:25:54.209Z,83.31
2023-10-01T05:28:59.932Z,83.27
2023-10-01T05:32:05.178Z,83.15
2023-10-01T05:35:18.861Z,82.55
2023-10-01T05:38:22.467Z,81.50
2023-10-01T05:41:34.254Z,82.08
2023-10-01T05:44:37.103Z,81.46
2023-10-01T05:47:56.587Z,81.06
2023-10-01T05:51:00.572Z,81.15
2023-10-01T05:54:04.296Z,80.65
2023-10-01T05:57:07.965Z,80.07
2023-10-01T06:00:19.585Z,79.63
2023-10-01T06:03:25.309Z,79.56
2023-10-01T06:06:28.185Z,79.87
2023-10-01T06:09:34.720Z,79.72
2023-10-01T06:12:52.174Z,79.36
2023-10-01T06:15:54.946Z,78.28
2023-10-01T06:19:01.869Z,78.64
2023-10-01T06:22:15.691Z,77.98
2023-10-01T06:25:18.779Z,78.00
2023-10-01T06:28:22.132Z,77.88
2023-10-01T06:31:25.470Z,78.00
2023-10-01T06:34:33.921Z,76.88
2023-10-01T06:37:52.312Z,77.30
2023-10-01T06:40:58.930Z,76.55
2023-10-01T06:44:04.076Z,75.80
2023-10-01T06:47:16.663Z,75.66
2023-10-01T06:50:22.335Z,75.74
2023-10-01T06:53:45.191Z,75.28
2023-10-01T06:56:49.264Z,75.13
2023-10-01T06:59:52.442Z,75.51
2023-10-01T07:02:56.936Z,75.71
2023-10-01T07:06:07.598Z,75.89
2023-10-01T07:09:26.740Z,76.06
2023-10-01T07:12:40.573Z,75.59
2023-10-01T07:16:01.792Z,75.88
2023-10-01T07:19:06.188Z,75.50
2023-10-01T07:22:55.103Z,75.52
2023-10-01T07:26:03.391Z,75.05
2023-10-01T07:29:13.221Z,74.64
2023-10-01T07:32:17.340Z,73.72
2023-10-01T07:35:26.389Z,74.19
2023-10-01T07:38:33.254Z,72.73
2023-10-01T07:41:45.066Z,72.00
2023-10-01T07:44:48.637Z,71.46
2023-10-01T07:48:06.542Z,69.67
2023-10-01T07:51:25.032Z,68.88
2023-10-01T07:54:30.670Z,68.83
2023-10-01T07:57:37.525Z,68.63
2023-10-01T08:00:50.999Z,68.55
2023-10-01T08:03:59.631Z,68.95
2023-10-01T08:07:17.431Z,69.80
2023-10-01T08:10:30.716Z,69.43
2023-10-01T08:13:39.148Z,69.42
2023-10-01T08:16:52.806Z,68.96
2023-10-01T08:20:15.813Z,68.53
2023-10-01T08:23:24.829Z,66.89
2023-10-01T08:26:49.838Z,67.00
2023-10-01T08:30:22.229Z,67.62
2023-10-01T08:33:35.873Z,66.53
2023-10-01T08:37:17.430Z,66.12
2023-10-01T08:44:32.471Z,67.77
2023-10-01T08:47:54.889Z,67.57
2023-10-01T08:51:37.651Z,66.10
2023-10-01T08:54:41.964Z,65.37
2023-10-01T08:57:47.601Z,64.27
2023-10-01T09:01:16.334Z,65.00
2023-10-01T09:05:05.157Z,62.71
2023-10-01T09:09:05.163Z,64.90
2023-10-01T09:16:29.589Z,65.69
2023-10-01T09:20:00.329Z,65.06
2023-10-01T09:23:09.466Z,65.46
2023-10-01T09:27:07.076Z,64.88
2023-10-01T09:30:28.650Z,65.05
2023-10-01T09:33:49.804Z,66.07
2023-10-01T09:37:02.831Z,66.31
2023-10-01T09:40:31.113Z,65.50
2023-10-01T09:43:41.524Z,65.88
2023-10-01T09:47:12.133Z,65.67
2023-10-01T09:50:27.659Z,66.13
2023-10-01T09:54:03.541Z,65.32
2023-10-01T09:57:13.483Z,65.39
2023-10-01T10:00:21.270Z,65.81
2023-10-01T10:03:26.211Z,65.69
2023-10-01T10:06:34.199Z,65.93
2023-10-01T10:09:39.304Z,65.14
2023-10-01T10:12:42.403Z,64.57
2023-10-01T10:15:59.324Z,61.97
2023-10-01T10:19:25.491Z,62.97
2023-10-01T10:22:33.679Z,63.41
2023-10-01T10:25:37.374Z,62.75
2023-10-01T10:28:58.469Z,61.67
2023-10-01T10:32:12.714Z,60.91
2023-10-01T10:35:16.571Z,61.56
2023-10-01T10:38:53.705Z,59.83
2023-10-01T10:42:32.263Z,60.01
2023-10-01T10:45:48.801Z,59.90
2023-10-01T10:49:04.476Z,59.63
2023-10-01T10:52:10.185Z,59.98
2023-10-01T10:55:23.772Z,58.76
2023-10-01T10:58:28.092Z,58.72
2023-10-01T11:01:49.973Z,59.52
2023-10-01T11:04:54.146Z,58.70
2023-10-01T11:08:06.733Z,56.12
2023-10-01T11:15:23.639Z,57.12
2023-10-01T11:27:59.633Z,57.28
2023-10-01T11:30:51.801Z,57.03
2023-10-01T11:34:33.790Z,54.29
2023-10-01T11:37:46.675Z,56.46
2023-10-01T11:41:18.474Z,54.08
2023-10-01T11:44:42.843Z,54.74
2023-10-01T11:51:47.018Z,53.12
2023-10-01T11:54:55.935Z,52.59
2023-10-01T11:58:01.729Z,53.58
2023-10-01T12:01:12.316Z,52.16
2023-10-01T12:04:44.586Z,53.85
2023-10-01T12:07:53.699Z,50.50
2023-10-01T12:11:22.327Z,52.76
2023-10-01T12:14:33.959Z,51.81
2023-10-01T12:17:37.094Z,51.71
2023-10-01T12:21:00.292Z,51.48
2023-10-01T12:24:03.470Z,51.67
2023-10-01T12:27:15.211Z,48.00
2023-10-01T12:30:40.047Z,49.53
2023-10-01T12:34:04.813Z,46.64
2023-10-01T12:37:27.993Z,49.73
2023-10-01T12:40:42.557Z,48.71
2023-10-01T12:43:45.726Z,49.63
2023-10-01T12:46:53.497Z,49.18
2023-10-01T12:50:00.880Z,48.07
2023-10-01T12:53:22.399Z,48.15
2023-10-01T12:56:46.002Z,48.34
2023-10-01T13:00:11.216Z,48.01
2023-10-01T13:03:24.751Z,46.61
2023-10-01T13:06:41.282Z,46.35
2023-10-01T13:09:46.921Z,47.84
2023-10-01T13:13:00.842Z,47.70
2023-10-01T13:16:10.011Z,48.68
2023-10-01T13:19:29.340Z,48.57
2023-10-01T13:22:35.432Z,47.31
2023-10-01T13:25:38.973Z,47.87
2023-10-01T13:28:48.005Z,47.85
2023-10-01T13:32:14.318Z,47.88
2023-10-01T13:35:44.011Z,47.88
2023-10-01T13:38:58.648Z,46.93
2023-10-01T13:42:25.359Z,46.32
2023-10-01T13:45:50.242Z,47.06
2023-10-01T13:49:14.622Z,47.64
2023-10-01T13:52:36.041Z,48.08
2023-10-01T13:56:13.912Z,46.56
2023-10-01T13:59:35.345Z,47.66
2023-10-01T14:02:56.727Z,48.82
2023-10-01T14:06:24.834Z,48.51
2023-10-01T14:09:50.548Z,49.51
2023-10-01T14:13:01.997Z,49.97
2023-10-01T14:16:13.395Z,49.34
2023-10-01T14:19:21.622Z,49.62
2023-10-01T14:22:24.434Z,50.23
2023-10-01T14:25:27.929Z,49.88
2023-10-01T14:28:33.097Z,49.64
2023-10-01T14:31:53.560Z,50.45
2023-10-01T14:34:57.080Z,50.71
2023-10-01T14:38:06.034Z,50.95
2023-10-01T14:41:17.485Z,50.87
2023-10-01T14:44:26.423Z,51.30
2023-10-01T14:47:30.162Z,52.10
2023-10-01T14:50:41.187Z,51.85
2023-10-01T14:57:18.375Z,51.81
2023-10-01T15:00:30.553Z,52.79
2023-10-01T15:03:39.315Z,52.74
2023-10-01T15:06:42.162Z,52.87
2023-10-01T15:09:45.232Z,52.79
2023-10-01T15:12:55.875Z,52.94
2023-10-01T15:16:30.852Z,53.46
2023-10-01T15:19:56.068Z,53.61
2023-10-01T15:22:58.998Z,53.74
2023-10-01T15:26:12.689Z,54.35
2023-10-01T15:29:16.093Z,54.49
2023-10-01T15:32:18.958Z,54.63
2023-10-01T15:35:24.334Z,54.92
2023-10-01T15:38:32.328Z,55.38
2023-10-01T15:41:35.307Z,55.86
2023-10-01T15:44:51.236Z,55.98
2023-10-01T15:48:01.023Z,56.87
2023-10-01T15:51:08.774Z,57.70
2023-10-01T15:54:23.823Z,58.02
2023-10-01T15:57:29.712Z,58.66
2023-10-01T16:00:37.506Z,59.05
2023-10-01T16:03:55.122Z,59.42
2023-10-01T16:07:08.388Z,59.78
2023-10-01T16:10:26.878Z,60.05
2023-10-01T16:13:37.484Z,60.48
2023-10-01T16:16:50.904Z,60.26
2023-10-01T16:19:58.712Z,60.42
2023-10-01T16:23:43.743Z,60.79
2023-10-01T16:27:55.819Z,60.90
2023-10-01T16:31:21.874Z,61.65
2023-10-01T16:34:41.824Z,61.74
2023-10-01T16:41:49.352Z,62.35
2023-10-01T16:45:02.383Z,63.51
2023-10-01T16:48:28.816Z,62.92
2023-10-01T16:51:39.167Z,63.34
2023-10-01T16:54:52.631Z,63.60
2023-10-01T16:58:25.035Z,63.24
2023-10-01T17:01:34.660Z,63.79
2023-10-01T17:04:45.588Z,63.63
2023-10-01T17:08:02.348Z,63.90
2023-10-01T17:11:08.305Z,65.13
2023-10-01T17:14:21.245Z,64.54
2023-10-01T17:17:32.276Z,64.19
2023-10-01T17:20:46.282Z,64.16
2023-10-01T17:23:57.479Z,63.95
2023-10-01T17:27:47.086Z,64.10
2023-10-01T17:31:11.332Z,64.22
2023-10-01T17:39:03.068Z,64.64
2023-10-01T17:42:15.951Z,64.89
2023-10-01T17:45:50.835Z,64.91
2023-10-01T17:49:02.772Z,64.59
2023-10-01T17:52:21.934Z,64.96
2023-10-01T17:55:28.579Z,65.25
2023-10-01T17:58:34.705Z,65.43
2023-10-01T18:02:10.466Z,65.73
2023-10-01T18:05:23.922Z,66.05
2023-10-01T18:08:35.935Z,65.30
2023-10-01T18:12:54.689Z,66.07
2023-10-01T18:16:34.429Z,65.67
2023-10-01T18:20:20.339Z,66.26
2023-10-01T18:23:31.056Z,67.04
2023-10-01T18:26:47.512Z,66.50
2023-10-01T18:30:25.941Z,66.05
2023-10-01T18:33:39.670Z,66.16
2023-10-01T18:37:02.985Z,66.44
2023-10-01T18:40:35.712Z,66.40
2023-10-01T18:47:31.008Z,68.48
2023-10-01T18:51:18.350Z,68.24
2023-10-01T18:55:09.743Z,68.74
2023-10-01T19:02:29.079Z,67.75
2023-10-01T19:06:12.386Z,67.41
2023-10-01T19:10:11.816Z,67.98
2023-10-01T19:17:55.389Z,68.13
2023-10-01T19:21:10.514Z,68.45
2023-10-01T19:24:21.681Z,69.73
2023-10-01T19:27:33.746Z,69.38
2023-10-01T19:30:38.406Z,68.83
2023-10-01T19:33:46.139Z,69.59
2023-10-01T19:37:04.588Z,70.13
2023-10-01T19:40:20.145Z,70.16
2023-10-01T19:43:31.041Z,71.04
2023-10-01T19:46:40.042Z,69.79
2023-10-01T19:49:51.165Z,70.48
2023-10-01T19:53:03.994Z,70.12
2023-10-01T19:56:08.865Z,69.47
2023-10-01T19:59:26.919Z,69.56
2023-10-01T20:02:46.558Z,69.66
2023-10-01T20:05:55.729Z,69.95
2023-10-01T20:09:06.055Z,70.26
2023-10-01T20:12:11.294Z,71.28
2023-10-01T20:15:28.352Z,71.23
2023-10-01T20:18:33.925Z,71.35
2023-10-01T20:21:41.670Z,71.54
2023-10-01T20:24:49.966Z,72.48
2023-10-01T20:27:59.264Z,72.15
2023-10-01T20:31:02.736Z,72.54
2023-10-01T20:34:05.544Z,72.63
2023-10-01T20:37:12.711Z,72.51
2023-10-01T20:40:20.046Z,72.94
2023-10-01T20:43:28.093Z,73.45
2023-10-01T20:46:34.487Z,73.41
2023-10-01T20:49:45.033Z,72.78
2023-10-01T20:52:52.738Z,72.76
2023-10-01T20:55:57.930Z,72.74
2023-10-01T20:59:16.844Z,73.79
2023-10-01T21:02:26.713Z,74.49
2023-10-01T21:05:31.459Z,73.94
2023-10-01T21:08:37.124Z,73.79
2023-10-01T21:11:41.192Z,73.47
2023-10-01T21:14:53.843Z,73.47
2023-10-01T21:17:56.811Z,73.53
2023-10-01T21:21:07.996Z,73.57
2023-10-01T21:24:19.782Z,72.94
2023-10-01T21:27:32.385Z,73.92
2023-10-01T21:30:46.470Z,72.89
2023-10-01T21:34:07.091Z,73.41
2023-10-01T21:37:10.703Z,73.52
2023-10-01T21:40:21.865Z,73.38
2023-10-01T21:43:27.413Z,73.04
2023-10-01T21:46:42.212Z,72.75
2023-10-01T21:49:51.566Z,72.88
2023-10-01T21:53:01.472Z,73.07
2023-10-01T21:56:12.125Z,73.38
2023-10-01T21:59:18.039Z,73.14
2023-10-01T22:02:28.274Z,73.38
2023-10-01T22:05:34.790Z,73.34
2023-10-01T22:08:41.062Z,73.20
2023-10-01T22:12:50.300Z,76.33
2023-10-01T22:16:19.823Z,77.17
2023-10-01T22:19:32.924Z,76.36
2023-10-01T22:22:51.193Z,75.43
2023-10-01T22:25:57.799Z,74.84
2023-10-01T22:29:05.711Z,74.42
2023-10-01T22:32:20.516Z,73.95
2023-10-01T22:35:34.492Z,73.97
2023-10-01T22:38:41.633Z,74.17
2023-10-01T22:41:56.074Z,73.85
2023-10-01T22:45:33.400Z,73.53
2023-10-01T22:48:50.998Z,73.92
2023-10-01T22:52:02.523Z,74.30
2023-10-01T22:55:13.505Z,74.84
2023-10-01T22:58:39.855Z,75.77
2023-10-01T23:02:05.495Z,74.83
2023-10-01T23:05:19.010Z,74.91
2023-10-01T23:08:35.191Z,74.33
2023-10-01T23:12:01.419Z,74.40
2023-10-01T23:15:16.855Z,74.93
2023-10-01T23:18:27.805Z,74.86
2023-10-01T23:22:28.220Z,75.17
2023-10-01T23:25:37.459Z,75.30
2023-10-01T23:28:52.793Z,75.42
2023-10-01T23:32:22.069Z,78.27
2023-10-01T23:35:59.839Z,75.57
2023-10-01T23:39:12.781Z,74.98
2023-10-01T23:42:31.034Z,74.79
2023-10-01T23:45:57.939Z,74.33
2023-10-01T23:49:22.865Z,74.21
2023-10-01T23:52:34.935Z,74.45
2023-10-01T23:56:05.307Z,73.57
2023-10-01T23:59:32.728Z,75.14
